createdAt,value
2019-02-12T00:00:22.522Z,3.20
2019-02-12T00:02:49.909Z,3.20
2019-02-12T00:05:17.332Z,3.30
2019-02-12T00:07:44.789Z,3.30
2019-02-12T00:10:12.211Z,3.20
2019-02-12T00:12:39.562Z,3.20
2019-02-12T00:15:06.838Z,3.10
2019-02-12T00:17:34.262Z,3.10
2019-02-12T00:20:01.552Z,3.20
2019-02-12T00:22:28.899Z,3.20
2019-02-12T00:24:56.115Z,3.30
2019-02-12T00:27:23.378Z,3.30
2019-02-12T00:29:50.801Z,3.30
2019-02-12T00:32:18.135Z,3.30
2019-02-12T00:34:45.402Z,3.20
2019-02-12T00:37:12.762Z,3.20
2019-02-12T00:39:40.154Z,3.20
2019-02-12T00:42:07.400Z,3.20
2019-02-12T00:44:34.623Z,3.30
2019-02-12T00:47:02.030Z,3.50
2019-02-12T00:49:48.931Z,3.50
2019-02-12T00:52:16.262Z,3.50
2019-02-12T00:54:43.595Z,3.50
2019-02-12T00:57:10.872Z,3.40
2019-02-12T00:59:38.242Z,3.40
2019-02-12T01:02:05.706Z,3.30
2019-02-12T01:04:33.141Z,3.10
2019-02-12T01:07:00.626Z,3.00
2019-02-12T01:09:28.506Z,3.00
2019-02-12T01:11:55.911Z,2.90
2019-02-12T01:14:23.318Z,2.90
2019-02-12T01:16:50.606Z,2.70
2019-02-12T01:19:17.982Z,2.70
2019-02-12T01:21:45.312Z,2.60
2019-02-12T01:24:12.586Z,2.70
2019-02-12T01:26:39.878Z,2.70
2019-02-12T01:29:07.192Z,2.90
2019-02-12T01:31:34.481Z,3.00
2019-02-12T01:34:01.870Z,2.90
2019-02-12T01:36:29.201Z,2.80
2019-02-12T01:38:56.462Z,2.80
2019-02-12T01:41:23.790Z,2.50
2019-02-12T01:43:51.054Z,2.60
2019-02-12T01:46:18.493Z,2.60
2019-02-12T01:48:45.943Z,2.70
2019-02-12T01:51:13.444Z,2.60
2019-02-12T01:53:40.722Z,2.60
2019-02-12T01:56:07.998Z,2.60
2019-02-12T01:58:35.226Z,2.60
2019-02-12T02:01:02.489Z,2.70
2019-02-12T02:03:29.736Z,2.90
2019-02-12T02:05:57.011Z,2.80
2019-02-12T02:08:24.319Z,2.90
2019-02-12T02:10:51.776Z,2.70
2019-02-12T02:13:19.202Z,2.80
2019-02-12T02:15:46.586Z,3.00
2019-02-12T02:18:13.954Z,2.90
2019-02-12T02:20:41.632Z,2.80
2019-02-12T02:23:09.062Z,2.70
2019-02-12T02:25:36.457Z,2.80
2019-02-12T02:28:03.898Z,2.70
2019-02-12T02:30:31.170Z,2.70
2019-02-12T02:32:58.422Z,2.50
2019-02-12T02:35:25.960Z,2.50
2019-02-12T02:37:53.435Z,2.40
2019-02-12T02:40:20.712Z,2.10
2019-02-12T02:42:48.091Z,2.00
2019-02-12T02:45:15.480Z,2.10
2019-02-12T02:47:42.842Z,2.20
2019-02-12T02:50:10.266Z,2.30
2019-02-12T02:52:37.823Z,2.50
2019-02-12T02:55:05.785Z,2.40
2019-02-12T02:57:33.053Z,2.30
2019-02-12T03:00:00.359Z,2.30
2019-02-12T03:02:27.714Z,2.30
2019-02-12T03:04:55.274Z,2.30
2019-02-12T03:07:22.654Z,2.40
2019-02-12T03:09:49.915Z,2.30
2019-02-12T03:12:17.188Z,2.20
2019-02-12T03:14:44.601Z,2.30
2019-02-12T03:17:11.874Z,2.40
2019-02-12T03:19:39.276Z,2.60
2019-02-12T03:22:07.237Z,2.60
2019-02-12T03:24:34.595Z,2.80
2019-02-12T03:27:01.967Z,2.70
2019-02-12T03:29:29.207Z,2.70
2019-02-12T03:31:56.585Z,2.70
2019-02-12T03:34:24.007Z,2.60
2019-02-12T03:36:51.277Z,2.70
2019-02-12T03:39:18.612Z,2.60
2019-02-12T03:41:45.984Z,2.60
2019-02-12T03:44:13.213Z,2.70
2019-02-12T03:46:40.502Z,2.60
2019-02-12T03:49:07.744Z,2.70
2019-02-12T03:51:35.114Z,2.60
2019-02-12T03:54:02.699Z,2.50
2019-02-12T03:56:29.973Z,2.50
2019-02-12T03:58:57.370Z,2.40
2019-02-12T04:01:24.778Z,2.40
2019-02-12T04:03:52.003Z,2.40
2019-02-12T04:06:19.395Z,2.60
2019-02-12T04:08:46.721Z,2.60
2019-02-12T04:11:14.846Z,2.50
2019-02-12T04:13:42.257Z,2.40
2019-02-12T04:16:09.712Z,2.20
2019-02-12T04:18:37.059Z,2.10
2019-02-12T04:21:04.419Z,2.10
2019-02-12T04:23:31.867Z,2.20
2019-02-12T04:25:59.131Z,2.10
2019-02-12T04:28:26.397Z,1.90
2019-02-12T04:30:53.771Z,1.80
2019-02-12T04:33:21.146Z,1.70
2019-02-12T04:35:48.548Z,1.80
2019-02-12T04:38:15.897Z,1.80
2019-02-12T04:40:43.166Z,1.90
2019-02-12T04:43:10.427Z,1.80
2019-02-12T04:45:37.874Z,1.70
2019-02-12T04:48:05.109Z,1.70
2019-02-12T04:50:32.447Z,1.70
2019-02-12T04:52:59.695Z,1.70
2019-02-12T04:55:27.073Z,1.50
2019-02-12T04:57:54.314Z,1.60
2019-02-12T05:00:21.929Z,1.50
2019-02-12T05:02:49.464Z,1.50
2019-02-12T05:05:17.018Z,1.30
2019-02-12T05:07:44.431Z,1.20
2019-02-12T05:10:13.802Z,1.30
2019-02-12T05:12:41.983Z,1.50
2019-02-12T05:15:09.258Z,1.70
2019-02-12T05:17:36.670Z,1.60
2019-02-12T05:20:05.259Z,1.40
2019-02-12T05:22:42.866Z,1.40
2019-02-12T05:25:01.706Z,1.50
2019-02-12T05:27:29.069Z,1.50
2019-02-12T05:29:57.676Z,1.60
2019-02-12T05:32:25.003Z,1.50
2019-02-12T05:34:52.256Z,1.60
2019-02-12T05:37:19.614Z,1.70
2019-02-12T05:39:47.071Z,1.90
2019-02-12T05:42:14.492Z,1.90
2019-02-12T05:44:41.730Z,1.90
2019-02-12T05:47:08.982Z,2.00
2019-02-12T05:49:36.254Z,2.00
2019-02-12T05:52:03.799Z,2.10
2019-02-12T05:54:31.439Z,2.10
2019-02-12T05:56:58.855Z,1.90
2019-02-12T05:59:26.422Z,1.90
2019-02-12T06:01:53.782Z,1.90
2019-02-12T06:04:21.149Z,1.80
2019-02-12T06:06:48.393Z,1.80
2019-02-12T06:09:15.737Z,1.70
2019-02-12T06:11:42.988Z,1.70
2019-02-12T06:14:10.257Z,1.80
2019-02-12T06:16:38.067Z,1.90
2019-02-12T06:19:05.459Z,2.00
2019-02-12T06:21:32.853Z,2.00
2019-02-12T06:24:00.283Z,2.00
2019-02-12T06:26:27.529Z,2.10
2019-02-12T06:28:54.780Z,1.90
2019-02-12T06:31:22.035Z,2.20
2019-02-12T06:33:49.383Z,2.00
2019-02-12T06:36:16.613Z,2.00
2019-02-12T06:38:43.859Z,1.90
2019-02-12T06:41:11.202Z,2.00
2019-02-12T06:43:38.426Z,1.70
2019-02-12T06:46:05.723Z,1.80
2019-02-12T06:48:32.995Z,1.90
2019-02-12T06:51:00.263Z,1.90
2019-02-12T06:53:27.711Z,2.00
2019-02-12T06:55:54.966Z,1.90
2019-02-12T06:58:22.265Z,2.10
2019-02-12T07:00:49.693Z,2.30
2019-02-12T07:03:19.255Z,2.30
2019-02-12T07:06:00.142Z,2.20
2019-02-12T07:08:51.342Z,2.20
2019-02-12T07:11:28.926Z,2.20
2019-02-12T07:14:17.075Z,2.20
2019-02-12T07:17:21.490Z,2.20
2019-02-12T07:20:33.834Z,2.10
2019-02-12T07:23:38.646Z,2.00
2019-02-12T07:26:18.074Z,1.90
2019-02-12T07:29:45.338Z,2.10
2019-02-12T07:32:56.935Z,2.00
2019-02-12T07:35:49.183Z,2.00
2019-02-12T07:38:39.790Z,2.20
2019-02-12T07:41:40.237Z,2.40
2019-02-12T07:44:17.730Z,2.20
2019-02-12T07:47:10.643Z,2.10
2019-02-12T07:49:58.393Z,2.00
2019-02-12T07:52:33.194Z,2.10
2019-02-12T07:55:28.856Z,2.10
2019-02-12T07:58:46.532Z,2.30
2019-02-12T08:02:01.020Z,2.20
2019-02-12T08:04:55.550Z,2.10
2019-02-12T08:08:11.041Z,2.20
2019-02-12T08:11:16.400Z,2.40
2019-02-12T08:14:23.347Z,2.50
2019-02-12T08:17:27.726Z,2.70
2019-02-12T08:20:32.607Z,2.80
2019-02-12T08:23:59.964Z,2.80
2019-02-12T08:27:26.312Z,2.70
2019-02-12T08:30:37.863Z,2.60
2019-02-12T08:33:42.612Z,2.60
2019-02-12T08:36:31.649Z,2.70
2019-02-12T08:39:23.970Z,2.70
2019-02-12T08:42:57.847Z,2.60
2019-02-12T08:46:03.091Z,2.60
2019-02-12T08:49:05.546Z,2.60
2019-02-12T08:52:12.623Z,2.50
2019-02-12T08:54:54.401Z,2.60
2019-02-12T08:57:37.696Z,2.50
2019-02-12T09:00:47.369Z,2.50
2019-02-12T09:03:40.930Z,2.60
2019-02-12T09:06:42.859Z,2.70
2019-02-12T09:10:10.375Z,2.80
2019-02-12T09:13:19.997Z,2.70
2019-02-12T09:16:13.584Z,2.80
2019-02-12T09:19:10.392Z,2.80
2019-02-12T09:22:33.582Z,2.70
2019-02-12T09:25:30.069Z,2.70
2019-02-12T09:28:12.567Z,2.80
2019-02-12T09:31:19.001Z,2.90
2019-02-12T09:34:31.383Z,2.90
2019-02-12T09:37:28.274Z,3.00
2019-02-12T09:40:19.557Z,2.80
2019-02-12T09:43:46.885Z,2.80
2019-02-12T09:46:51.683Z,2.80
2019-02-12T09:49:47.667Z,2.60
2019-02-12T09:52:42.423Z,2.40
2019-02-12T09:56:09.970Z,2.60
2019-02-12T09:59:05.352Z,2.70
2019-02-12T10:01:58.966Z,2.90
2019-02-12T10:05:03.056Z,2.70
2019-02-12T10:07:58.820Z,2.60
2019-02-12T10:10:46.669Z,2.50
2019-02-12T10:13:34.853Z,2.50
2019-02-12T10:16:20.953Z,2.40
2019-02-12T10:19:39.393Z,2.50
2019-02-12T10:22:21.238Z,2.60
2019-02-12T10:25:22.508Z,2.60
2019-02-12T10:28:53.310Z,2.30
2019-02-12T10:31:27.132Z,2.60
2019-02-12T10:33:54.517Z,2.60
2019-02-12T10:36:22.138Z,2.40
2019-02-12T10:38:49.524Z,2.50
2019-02-12T10:41:16.927Z,2.50
2019-02-12T10:43:44.201Z,2.70
2019-02-12T10:46:11.566Z,2.70
2019-02-12T10:48:38.898Z,2.60
2019-02-12T10:51:06.293Z,2.90
2019-02-12T10:53:33.954Z,2.90
2019-02-12T10:56:01.576Z,2.80
2019-02-12T10:58:29.419Z,2.90
2019-02-12T11:00:56.670Z,2.90
2019-02-12T11:03:43.483Z,2.70
2019-02-12T11:06:10.730Z,2.80
2019-02-12T11:08:37.986Z,3.00
2019-02-12T11:11:05.538Z,3.00
2019-02-12T11:13:32.842Z,2.80
2019-02-12T11:16:00.197Z,2.70
2019-02-12T11:18:27.566Z,2.70
2019-02-12T11:20:55.854Z,2.80
2019-02-12T11:23:23.279Z,2.70
2019-02-12T11:25:50.526Z,2.50
2019-02-12T11:28:17.890Z,2.50
2019-02-12T11:30:45.256Z,2.40
2019-02-12T11:33:12.802Z,2.30
2019-02-12T11:35:40.171Z,2.30
2019-02-12T11:38:07.433Z,2.40
2019-02-12T11:40:34.806Z,2.40
2019-02-12T11:43:02.487Z,2.50
2019-02-12T11:45:29.837Z,2.60
2019-02-12T11:47:57.513Z,2.70
2019-02-12T11:50:24.987Z,2.60
2019-02-12T11:52:52.462Z,2.50
2019-02-12T11:55:19.738Z,2.60
2019-02-12T11:57:47.271Z,2.70
2019-02-12T12:00:18.023Z,2.80
2019-02-12T12:02:45.438Z,2.80
2019-02-12T12:05:12.815Z,2.80
2019-02-12T12:07:40.115Z,2.70
2019-02-12T12:10:08.115Z,2.80
2019-02-12T12:12:35.541Z,2.60
2019-02-12T12:15:03.373Z,2.70
2019-02-12T12:17:30.761Z,2.50
2019-02-12T12:19:58.058Z,2.50
2019-02-12T12:22:26.411Z,2.60
2019-02-12T12:24:53.714Z,2.50
2019-02-12T12:27:21.118Z,2.50
2019-02-12T12:29:48.591Z,2.60
2019-02-12T12:32:15.870Z,2.80
2019-02-12T12:34:43.245Z,2.80
2019-02-12T12:37:10.585Z,3.00
2019-02-12T12:39:37.874Z,3.10
2019-02-12T12:42:05.439Z,3.10
2019-02-12T12:44:32.858Z,3.00
2019-02-12T12:47:00.221Z,3.10
2019-02-12T12:49:27.772Z,3.10
2019-02-12T12:51:55.231Z,3.10
2019-02-12T12:54:22.821Z,2.90
2019-02-12T12:56:50.246Z,2.90
2019-02-12T12:59:17.591Z,2.80
2019-02-12T13:01:45.181Z,3.00
2019-02-12T13:04:12.546Z,3.00
2019-02-12T13:06:39.935Z,3.00
2019-02-12T13:09:07.414Z,3.00
2019-02-12T13:11:35.095Z,3.00
2019-02-12T13:14:02.510Z,3.10
2019-02-12T13:16:29.935Z,2.90
2019-02-12T13:18:57.442Z,3.00
2019-02-12T13:21:24.775Z,3.00
2019-02-12T13:23:53.154Z,2.90
2019-02-12T13:26:20.630Z,2.80
2019-02-12T13:28:48.063Z,2.60
2019-02-12T13:31:15.445Z,2.60
2019-02-12T13:33:43.425Z,2.50
2019-02-12T13:36:10.871Z,2.60
2019-02-12T13:38:38.350Z,2.70
2019-02-12T13:41:05.706Z,2.90
2019-02-12T13:43:32.972Z,2.80
2019-02-12T13:46:00.353Z,2.90
2019-02-12T13:48:28.146Z,3.00
2019-02-12T13:50:55.730Z,3.00
2019-02-12T13:53:23.212Z,3.00
2019-02-12T13:55:50.782Z,3.10
2019-02-12T13:58:17.985Z,3.30
2019-02-12T14:00:45.393Z,3.40
2019-02-12T14:03:12.760Z,3.40
2019-02-12T14:05:42.112Z,3.30
2019-02-12T14:08:09.839Z,3.10
2019-02-12T14:10:37.210Z,2.90
2019-02-12T14:13:04.610Z,2.80
2019-02-12T14:15:31.894Z,2.90
2019-02-12T14:17:59.534Z,2.90
2019-02-12T14:20:26.997Z,2.90
2019-02-12T14:22:54.377Z,3.20
2019-02-12T14:25:25.619Z,3.50
2019-02-12T14:27:52.950Z,3.50
2019-02-12T14:30:20.451Z,3.50
2019-02-12T14:32:47.897Z,3.30
2019-02-12T14:35:15.149Z,3.30
2019-02-12T14:37:42.724Z,3.10
2019-02-12T14:40:10.430Z,3.20
2019-02-12T14:42:37.955Z,3.10
2019-02-12T14:45:07.008Z,3.10
2019-02-12T14:47:34.482Z,3.10
2019-02-12T14:50:01.969Z,2.80
2019-02-12T14:52:29.334Z,2.70
2019-02-12T14:54:56.628Z,2.50
2019-02-12T14:57:24.026Z,2.30
2019-02-12T14:59:51.522Z,2.30
2019-02-12T15:02:18.940Z,2.30
2019-02-12T15:04:46.191Z,2.10
2019-02-12T15:07:13.762Z,2.00
2019-02-12T15:09:41.281Z,2.00
2019-02-12T15:12:08.521Z,1.90
2019-02-12T15:14:36.181Z,1.90
2019-02-12T15:17:03.736Z,1.90
2019-02-12T15:19:31.134Z,1.90
2019-02-12T15:21:58.738Z,2.00
2019-02-12T15:24:25.962Z,2.10
2019-02-12T15:26:54.288Z,2.20
2019-02-12T15:29:21.544Z,2.30
2019-02-12T15:31:49.006Z,2.40
2019-02-12T15:34:16.370Z,2.60
2019-02-12T15:36:43.619Z,2.60
2019-02-12T15:39:11.057Z,2.60
2019-02-12T15:41:38.515Z,2.60
2019-02-12T15:44:05.948Z,2.70
2019-02-12T15:46:33.335Z,2.90
2019-02-12T15:49:00.723Z,3.10
2019-02-12T15:51:27.962Z,3.20
2019-02-12T15:53:55.387Z,3.00
2019-02-12T15:56:22.893Z,3.20
2019-02-12T15:58:51.749Z,3.10
2019-02-12T16:01:19.599Z,3.10
2019-02-12T16:03:46.898Z,3.20
2019-02-12T16:06:14.406Z,2.90
2019-02-12T16:08:41.972Z,3.00
2019-02-12T16:11:09.325Z,3.00
2019-02-12T16:13:36.733Z,3.10
2019-02-12T16:16:05.585Z,3.00
2019-02-12T16:18:33.209Z,3.10
2019-02-12T16:21:00.486Z,3.10
2019-02-12T16:23:27.818Z,3.20
2019-02-12T16:25:59.457Z,3.30
2019-02-12T16:28:25.487Z,3.20
2019-02-12T16:30:52.945Z,3.20
2019-02-12T16:33:20.415Z,3.10
2019-02-12T16:35:49.634Z,3.20
2019-02-12T16:38:16.994Z,3.20
2019-02-12T16:40:44.283Z,3.10
2019-02-12T16:43:11.569Z,3.10
2019-02-12T16:45:43.438Z,3.00
2019-02-12T16:48:10.778Z,2.80
2019-02-12T16:50:38.207Z,2.70
2019-02-12T16:53:05.484Z,2.60
2019-02-12T16:55:32.828Z,2.60
2019-02-12T16:58:00.307Z,2.60
2019-02-12T17:00:27.554Z,2.70
2019-02-12T17:02:54.865Z,2.60
2019-02-12T17:05:22.483Z,2.70
2019-02-12T17:07:49.953Z,2.70
2019-02-12T17:10:17.357Z,2.70
2019-02-12T17:12:44.861Z,2.70
2019-02-12T17:15:12.441Z,2.80
2019-02-12T17:17:39.853Z,2.80
2019-02-12T17:20:12.602Z,2.80
2019-02-12T17:22:39.838Z,2.90
2019-02-12T17:25:08.645Z,2.90
2019-02-12T17:27:36.026Z,2.90
2019-02-12T17:30:04.058Z,2.80
2019-02-12T17:32:31.441Z,2.70
2019-02-12T17:35:01.428Z,2.80
2019-02-12T17:37:27.859Z,2.90
2019-02-12T17:39:55.265Z,2.90
2019-02-12T17:42:22.555Z,2.80
2019-02-12T17:44:49.843Z,2.80
2019-02-12T17:47:17.149Z,2.80
2019-02-12T17:49:44.567Z,2.90
2019-02-12T17:52:11.986Z,3.00
2019-02-12T17:54:39.348Z,3.00
2019-02-12T17:57:06.722Z,3.00
2019-02-12T17:59:34.063Z,3.00
2019-02-12T18:02:01.411Z,2.90
2019-02-12T18:04:28.674Z,2.90
2019-02-12T18:06:56.000Z,2.80
2019-02-12T18:09:23.443Z,2.90
2019-02-12T18:11:50.686Z,2.80
2019-02-12T18:14:17.934Z,2.70
2019-02-12T18:16:45.206Z,2.60
2019-02-12T18:19:12.466Z,2.60
2019-02-12T18:21:39.721Z,2.60
2019-02-12T18:24:07.465Z,2.60
2019-02-12T18:26:34.870Z,2.70
2019-02-12T18:29:02.283Z,2.90
2019-02-12T18:31:30.563Z,3.00
2019-02-12T18:33:57.937Z,3.00
2019-02-12T18:36:25.218Z,2.90
2019-02-12T18:38:52.562Z,3.00
2019-02-12T18:41:19.872Z,3.10
2019-02-12T18:43:47.258Z,3.10
2019-02-12T18:46:14.676Z,3.20
2019-02-12T18:48:42.052Z,3.20
2019-02-12T18:51:09.306Z,3.10
2019-02-12T18:53:36.668Z,3.10
2019-02-12T18:56:04.018Z,3.10
2019-02-12T18:58:31.270Z,3.10
2019-02-12T19:00:58.527Z,3.10
2019-02-12T19:03:25.906Z,3.10
2019-02-12T19:05:53.186Z,3.20
2019-02-12T19:08:20.518Z,3.20
2019-02-12T19:10:47.852Z,3.20
2019-02-12T19:13:15.131Z,3.30
2019-02-12T19:15:42.441Z,3.20
2019-02-12T19:18:12.640Z,3.10
2019-02-12T19:20:40.073Z,3.20
2019-02-12T19:23:07.302Z,3.10
2019-02-12T19:25:34.719Z,3.10
2019-02-12T19:28:02.054Z,3.00
2019-02-12T19:30:29.392Z,3.00
2019-02-12T19:32:58.457Z,3.00
2019-02-12T19:35:25.746Z,2.90
2019-02-12T19:37:53.134Z,2.90
2019-02-12T19:40:20.514Z,2.80
2019-02-12T19:42:47.737Z,2.80
2019-02-12T19:45:15.054Z,2.70
2019-02-12T19:47:42.435Z,2.70
2019-02-12T19:50:09.686Z,2.70
2019-02-12T19:52:37.051Z,2.60
2019-02-12T19:55:05.006Z,2.50
2019-02-12T19:57:32.237Z,2.50
2019-02-12T19:59:59.491Z,2.40
2019-02-12T20:02:26.758Z,2.50
2019-02-12T20:04:54.170Z,2.60
2019-02-12T20:07:21.884Z,2.60
2019-02-12T20:09:49.247Z,2.70
2019-02-12T20:12:16.686Z,2.60
2019-02-12T20:14:44.083Z,2.40
2019-02-12T20:17:11.634Z,2.40
2019-02-12T20:19:38.990Z,2.40
2019-02-12T20:22:06.470Z,2.40
2019-02-12T20:24:33.910Z,2.40
2019-02-12T20:27:06.469Z,2.40
2019-02-12T20:29:30.582Z,2.30
2019-02-12T20:31:57.848Z,2.30
2019-02-12T20:34:25.308Z,2.20
2019-02-12T20:36:52.745Z,2.30
2019-02-12T20:39:20.269Z,2.40
2019-02-12T20:41:47.559Z,2.40
2019-02-12T20:44:15.006Z,2.50
2019-02-12T20:46:42.266Z,2.40
2019-02-12T20:49:09.521Z,2.40
2019-02-12T20:51:36.912Z,2.50
2019-02-12T20:54:04.186Z,2.60
2019-02-12T20:56:31.494Z,2.60
2019-02-12T20:58:58.849Z,2.60
2019-02-12T21:01:26.102Z,2.70
2019-02-12T21:03:53.349Z,2.70
2019-02-12T21:06:20.605Z,2.70
2019-02-12T21:08:47.898Z,2.70
2019-02-12T21:11:15.182Z,2.70
2019-02-12T21:13:42.678Z,2.70
2019-02-12T21:16:10.149Z,2.70
2019-02-12T21:18:37.500Z,2.60
2019-02-12T21:21:04.762Z,2.50
2019-02-12T21:23:32.053Z,2.60
2019-02-12T21:25:59.451Z,2.70
2019-02-12T21:28:26.743Z,2.70
2019-02-12T21:30:54.134Z,2.90
2019-02-12T21:33:21.542Z,2.90
2019-02-12T21:35:49.838Z,2.90
2019-02-12T21:38:18.578Z,2.90
2019-02-12T21:40:45.834Z,3.00
2019-02-12T21:43:13.241Z,2.90
2019-02-12T21:45:40.508Z,2.90
2019-02-12T21:48:07.742Z,2.90
2019-02-12T21:50:35.101Z,3.00
2019-02-12T21:53:02.406Z,3.00
2019-02-12T21:55:29.714Z,3.00
2019-02-12T21:57:58.777Z,2.90
2019-02-12T22:00:26.282Z,3.00
2019-02-12T22:02:53.646Z,3.10
2019-02-12T22:05:20.903Z,3.00
2019-02-12T22:07:48.268Z,3.10
2019-02-12T22:10:16.547Z,3.20
2019-02-12T22:12:43.847Z,3.20
2019-02-12T22:15:12.070Z,3.30
2019-02-12T22:17:40.181Z,3.20
2019-02-12T22:20:09.106Z,3.20
2019-02-12T22:22:36.505Z,3.10
2019-02-12T22:25:04.206Z,3.20
2019-02-12T22:27:39.878Z,3.10
2019-02-12T22:30:00.868Z,3.10
2019-02-12T22:32:28.442Z,3.10
2019-02-12T22:34:55.714Z,3.20
2019-02-12T22:37:23.895Z,3.20
2019-02-12T22:39:51.370Z,3.20
2019-02-12T22:42:18.838Z,3.20
2019-02-12T22:44:46.230Z,3.20
2019-02-12T22:47:13.462Z,3.30
2019-02-12T22:49:40.713Z,3.40
2019-02-12T22:52:07.994Z,3.30
2019-02-12T22:54:35.291Z,3.40
2019-02-12T22:57:02.695Z,3.40
2019-02-12T22:59:31.444Z,3.30
2019-02-12T23:01:58.986Z,3.20
2019-02-12T23:04:26.294Z,3.00
2019-02-12T23:06:53.563Z,3.10
2019-02-12T23:09:20.922Z,3.10
2019-02-12T23:11:48.353Z,3.10
2019-02-12T23:14:15.678Z,3.10
2019-02-12T23:16:42.910Z,3.00
2019-02-12T23:19:10.290Z,3.00
2019-02-12T23:21:37.571Z,3.10
2019-02-12T23:24:04.901Z,3.10
2019-02-12T23:26:32.162Z,3.10
2019-02-12T23:28:59.550Z,3.00
2019-02-12T23:31:26.894Z,2.90
2019-02-12T23:33:54.246Z,3.00
2019-02-12T23:36:22.642Z,2.90
2019-02-12T23:38:49.933Z,2.90
2019-02-12T23:41:17.218Z,2.90
2019-02-12T23:43:44.591Z,3.00
2019-02-12T23:46:12.110Z,3.00
2019-02-12T23:48:39.468Z,2.90
2019-02-12T23:51:06.722Z,2.80
2019-02-12T23:53:34.101Z,2.80
2019-02-12T23:56:01.344Z,2.80
2019-02-12T23:58:28.713Z,2.80
